sensor_id;sensor_type;location;lat;lon;timestamp;temperature;humidity
68485;DHT22;55472;50.060;21.960;2024-01-25T00:01:23;4.90;99.90
68485;DHT22;55472;50.060;21.960;2024-01-25T00:03:49;4.90;99.90
68485;DHT22;55472;50.060;21.960;2024-01-25T00:06:15;4.90;99.90
68485;DHT22;55472;50.060;21.960;2024-01-25T00:08:41;4.90;99.90
68485;DHT22;55472;50.060;21.960;2024-01-25T00:11:07;4.90;99.90
68485;DHT22;55472;50.060;21.960;2024-01-25T00:13:35;4.90;99.90
68485;DHT22;55472;50.060;21.960;2024-01-25T00:16:03;5.00;99.90
68485;DHT22;55472;50.060;21.960;2024-01-25T00:18:30;5.00;99.90
68485;DHT22;55472;50.060;21.960;2024-01-25T00:20:56;5.00;99.90
68485;DHT22;55472;50.060;21.960;2024-01-25T00:23:22;5.00;99.90
68485;DHT22;55472;50.060;21.960;2024-01-25T00:25:48;5.00;99.90
68485;DHT22;55472;50.060;21.960;2024-01-25T00:28:14;5.00;99.90
68485;DHT22;55472;50.060;21.960;2024-01-25T00:30:40;5.00;99.90
68485;DHT22;55472;50.060;21.960;2024-01-25T00:33:07;5.00;99.90
68485;DHT22;55472;50.060;21.960;2024-01-25T00:35:33;5.00;99.90
68485;DHT22;55472;50.060;21.960;2024-01-25T00:38:00;5.00;99.90
68485;DHT22;55472;50.060;21.960;2024-01-25T00:40:26;5.00;99.90
68485;DHT22;55472;50.060;21.960;2024-01-25T00:42:53;5.00;99.90
68485;DHT22;55472;50.060;21.960;2024-01-25T00:45:20;5.00;99.90
68485;DHT22;55472;50.060;21.960;2024-01-25T00:47:47;5.00;99.90
68485;DHT22;55472;50.060;21.960;2024-01-25T00:50:14;5.00;99.90
68485;DHT22;55472;50.060;21.960;2024-01-25T00:52:43;5.00;99.90
68485;DHT22;55472;50.060;21.960;2024-01-25T00:55:10;5.00;99.90
68485;DHT22;55472;50.060;21.960;2024-01-25T00:57:37;5.10;99.90
68485;DHT22;55472;50.060;21.960;2024-01-25T01:00:04;5.10;99.90
68485;DHT22;55472;50.060;21.960;2024-01-25T01:02:36;5.10;99.90
68485;DHT22;55472;50.060;21.960;2024-01-25T01:05:06;5.10;99.90
68485;DHT22;55472;50.060;21.960;2024-01-25T01:07:33;5.10;99.90
68485;DHT22;55472;50.060;21.960;2024-01-25T01:09:59;5.10;99.90
68485;DHT22;55472;50.060;21.960;2024-01-25T01:12:25;5.10;99.90
68485;DHT22;55472;50.060;21.960;2024-01-25T01:14:51;5.00;99.90
68485;DHT22;55472;50.060;21.960;2024-01-25T01:17:18;5.00;99.90
68485;DHT22;55472;50.060;21.960;2024-01-25T01:19:44;5.00;99.90
68485;DHT22;55472;50.060;21.960;2024-01-25T01:22:10;4.90;99.90
68485;DHT22;55472;50.060;21.960;2024-01-25T01:24:36;4.80;99.90
68485;DHT22;55472;50.060;21.960;2024-01-25T01:27:03;4.80;99.90
68485;DHT22;55472;50.060;21.960;2024-01-25T01:29:29;4.80;99.90
68485;DHT22;55472;50.060;21.960;2024-01-25T01:31:55;4.80;99.90
68485;DHT22;55472;50.060;21.960;2024-01-25T01:34:21;4.70;99.90
68485;DHT22;55472;50.060;21.960;2024-01-25T01:36:47;4.70;99.90
68485;DHT22;55472;50.060;21.960;2024-01-25T01:39:13;4.70;99.90
68485;DHT22;55472;50.060;21.960;2024-01-25T01:41:40;4.60;99.90
68485;DHT22;55472;50.060;21.960;2024-01-25T01:44:05;4.60;99.90
68485;DHT22;55472;50.060;21.960;2024-01-25T01:46:37;4.50;99.90
68485;DHT22;55472;50.060;21.960;2024-01-25T01:49:07;4.50;99.90
68485;DHT22;55472;50.060;21.960;2024-01-25T01:51:35;4.50;99.90
68485;DHT22;55472;50.060;21.960;2024-01-25T01:54:02;4.40;99.90
68485;DHT22;55472;50.060;21.960;2024-01-25T01:56:29;4.40;99.90
68485;DHT22;55472;50.060;21.960;2024-01-25T01:58:58;4.30;99.90
68485;DHT22;55472;50.060;21.960;2024-01-25T02:01:25;4.30;99.90
68485;DHT22;55472;50.060;21.960;2024-01-25T02:03:52;4.30;99.90
68485;DHT22;55472;50.060;21.960;2024-01-25T02:06:19;4.30;99.90
68485;DHT22;55472;50.060;21.960;2024-01-25T02:08:47;4.40;99.90
68485;DHT22;55472;50.060;21.960;2024-01-25T02:11:14;4.40;99.90
68485;DHT22;55472;50.060;21.960;2024-01-25T02:13:40;4.40;99.90
68485;DHT22;55472;50.060;21.960;2024-01-25T02:16:07;4.40;99.90
68485;DHT22;55472;50.060;21.960;2024-01-25T02:18:33;4.40;99.90
68485;DHT22;55472;50.060;21.960;2024-01-25T02:21:00;4.50;99.90
68485;DHT22;55472;50.060;21.960;2024-01-25T02:23:26;4.50;99.90
68485;DHT22;55472;50.060;21.960;2024-01-25T02:25:52;4.50;99.90
68485;DHT22;55472;50.060;21.960;2024-01-25T02:28:18;4.40;99.90
68485;DHT22;55472;50.060;21.960;2024-01-25T02:30:45;4.40;99.90
68485;DHT22;55472;50.060;21.960;2024-01-25T02:33:11;4.40;99.90
68485;DHT22;55472;50.060;21.960;2024-01-25T02:35:37;4.40;99.90
68485;DHT22;55472;50.060;21.960;2024-01-25T02:38:04;4.40;99.90
68485;DHT22;55472;50.060;21.960;2024-01-25T02:40:30;4.40;99.90
68485;DHT22;55472;50.060;21.960;2024-01-25T02:42:56;4.30;99.90
68485;DHT22;55472;50.060;21.960;2024-01-25T02:45:23;4.30;99.90
68485;DHT22;55472;50.060;21.960;2024-01-25T02:47:49;4.30;99.90
68485;DHT22;55472;50.060;21.960;2024-01-25T02:50:16;4.30;99.90
68485;DHT22;55472;50.060;21.960;2024-01-25T02:52:42;4.30;99.90
68485;DHT22;55472;50.060;21.960;2024-01-25T02:55:08;4.30;99.90
68485;DHT22;55472;50.060;21.960;2024-01-25T02:57:35;4.30;99.90
68485;DHT22;55472;50.060;21.960;2024-01-25T03:00:01;4.30;99.90
68485;DHT22;55472;50.060;21.960;2024-01-25T03:02:27;4.30;99.90
68485;DHT22;55472;50.060;21.960;2024-01-25T03:04:53;4.30;99.90
68485;DHT22;55472;50.060;21.960;2024-01-25T03:07:19;4.30;99.90
68485;DHT22;55472;50.060;21.960;2024-01-25T03:09:46;4.30;99.90
68485;DHT22;55472;50.060;21.960;2024-01-25T03:12:11;4.30;99.90
68485;DHT22;55472;50.060;21.960;2024-01-25T03:14:38;4.20;99.90
68485;DHT22;55472;50.060;21.960;2024-01-25T03:17:04;4.20;99.90
68485;DHT22;55472;50.060;21.960;2024-01-25T03:19:30;4.20;99.90
68485;DHT22;55472;50.060;21.960;2024-01-25T03:21:56;4.10;99.90
68485;DHT22;55472;50.060;21.960;2024-01-25T03:24:22;4.10;99.90
68485;DHT22;55472;50.060;21.960;2024-01-25T03:26:49;4.10;99.90
68485;DHT22;55472;50.060;21.960;2024-01-25T03:29:16;4.00;99.90
68485;DHT22;55472;50.060;21.960;2024-01-25T03:31:42;4.00;99.90
68485;DHT22;55472;50.060;21.960;2024-01-25T03:34:08;4.00;99.90
68485;DHT22;55472;50.060;21.960;2024-01-25T03:36:34;4.00;99.90
68485;DHT22;55472;50.060;21.960;2024-01-25T03:39:02;4.00;99.90
68485;DHT22;55472;50.060;21.960;2024-01-25T03:41:28;4.00;99.90
68485;DHT22;55472;50.060;21.960;2024-01-25T03:43:55;3.90;99.90
68485;DHT22;55472;50.060;21.960;2024-01-25T03:46:21;3.90;99.90
68485;DHT22;55472;50.060;21.960;2024-01-25T03:48:47;3.90;99.90
68485;DHT22;55472;50.060;21.960;2024-01-25T03:51:13;3.90;99.90
68485;DHT22;55472;50.060;21.960;2024-01-25T03:53:39;3.90;99.90
68485;DHT22;55472;50.060;21.960;2024-01-25T03:56:12;3.90;99.90
68485;DHT22;55472;50.060;21.960;2024-01-25T03:58:44;3.90;99.90
68485;DHT22;55472;50.060;21.960;2024-01-25T04:01:10;3.90;99.90
68485;DHT22;55472;50.060;21.960;2024-01-25T04:03:36;4.00;99.90
68485;DHT22;55472;50.060;21.960;2024-01-25T04:06:02;4.00;99.90
68485;DHT22;55472;50.060;21.960;2024-01-25T04:08:29;4.00;99.90
68485;DHT22;55472;50.060;21.960;2024-01-25T04:10:55;4.10;99.90
68485;DHT22;55472;50.060;21.960;2024-01-25T04:13:21;4.10;99.90
68485;DHT22;55472;50.060;21.960;2024-01-25T04:15:47;4.10;99.90
68485;DHT22;55472;50.060;21.960;2024-01-25T04:18:13;4.10;99.90
68485;DHT22;55472;50.060;21.960;2024-01-25T04:20:41;4.10;99.90
68485;DHT22;55472;50.060;21.960;2024-01-25T04:23:07;4.10;99.90
68485;DHT22;55472;50.060;21.960;2024-01-25T04:25:33;4.10;99.90
68485;DHT22;55472;50.060;21.960;2024-01-25T04:28:00;4.10;99.90
68485;DHT22;55472;50.060;21.960;2024-01-25T04:30:26;4.10;99.90
68485;DHT22;55472;50.060;21.960;2024-01-25T04:32:52;4.10;99.90
68485;DHT22;55472;50.060;21.960;2024-01-25T04:35:18;4.10;99.90
68485;DHT22;55472;50.060;21.960;2024-01-25T04:37:44;4.10;99.90
68485;DHT22;55472;50.060;21.960;2024-01-25T04:40:11;4.00;99.90
68485;DHT22;55472;50.060;21.960;2024-01-25T04:42:37;4.00;99.90
68485;DHT22;55472;50.060;21.960;2024-01-25T04:45:03;4.00;99.90
68485;DHT22;55472;50.060;21.960;2024-01-25T04:47:30;4.00;99.90
68485;DHT22;55472;50.060;21.960;2024-01-25T04:49:56;4.00;99.90
68485;DHT22;55472;50.060;21.960;2024-01-25T04:52:22;3.90;99.90
68485;DHT22;55472;50.060;21.960;2024-01-25T04:54:48;3.90;99.90
68485;DHT22;55472;50.060;21.960;2024-01-25T04:57:15;3.90;99.90
68485;DHT22;55472;50.060;21.960;2024-01-25T04:59:40;3.90;99.90
68485;DHT22;55472;50.060;21.960;2024-01-25T05:02:07;3.90;99.90
68485;DHT22;55472;50.060;21.960;2024-01-25T05:04:33;3.80;99.90
68485;DHT22;55472;50.060;21.960;2024-01-25T05:07:00;3.80;99.90
68485;DHT22;55472;50.060;21.960;2024-01-25T05:09:26;3.80;99.90
68485;DHT22;55472;50.060;21.960;2024-01-25T05:11:52;3.80;99.90
68485;DHT22;55472;50.060;21.960;2024-01-25T05:14:24;3.80;99.90
68485;DHT22;55472;50.060;21.960;2024-01-25T05:16:51;3.80;99.90
68485;DHT22;55472;50.060;21.960;2024-01-25T05:19:17;3.80;99.90
68485;DHT22;55472;50.060;21.960;2024-01-25T05:21:43;3.80;99.90
68485;DHT22;55472;50.060;21.960;2024-01-25T05:24:09;3.80;99.90
68485;DHT22;55472;50.060;21.960;2024-01-25T05:26:36;3.80;99.90
68485;DHT22;55472;50.060;21.960;2024-01-25T05:29:02;3.80;99.90
68485;DHT22;55472;50.060;21.960;2024-01-25T05:31:28;3.80;99.90
68485;DHT22;55472;50.060;21.960;2024-01-25T05:33:54;3.80;99.90
68485;DHT22;55472;50.060;21.960;2024-01-25T05:36:20;3.80;99.90
68485;DHT22;55472;50.060;21.960;2024-01-25T05:38:46;3.80;99.90
68485;DHT22;55472;50.060;21.960;2024-01-25T05:41:12;3.80;99.90
68485;DHT22;55472;50.060;21.960;2024-01-25T05:43:38;3.80;99.90
68485;DHT22;55472;50.060;21.960;2024-01-25T05:46:04;3.80;99.90
68485;DHT22;55472;50.060;21.960;2024-01-25T05:48:31;3.80;99.90
68485;DHT22;55472;50.060;21.960;2024-01-25T05:50:57;3.80;99.90
68485;DHT22;55472;50.060;21.960;2024-01-25T05:53:23;3.80;99.90
68485;DHT22;55472;50.060;21.960;2024-01-25T05:55:49;3.80;99.90
68485;DHT22;55472;50.060;21.960;2024-01-25T05:58:15;3.80;99.90
68485;DHT22;55472;50.060;21.960;2024-01-25T06:00:42;3.80;99.90
68485;DHT22;55472;50.060;21.960;2024-01-25T06:03:08;3.90;99.90
68485;DHT22;55472;50.060;21.960;2024-01-25T06:05:35;3.90;99.90
68485;DHT22;55472;50.060;21.960;2024-01-25T06:08:01;3.90;99.90
68485;DHT22;55472;50.060;21.960;2024-01-25T06:10:27;3.90;99.90
68485;DHT22;55472;50.060;21.960;2024-01-25T06:12:54;3.90;99.90
68485;DHT22;55472;50.060;21.960;2024-01-25T06:15:20;3.90;99.90
68485;DHT22;55472;50.060;21.960;2024-01-25T06:17:46;3.90;99.90
68485;DHT22;55472;50.060;21.960;2024-01-25T06:20:13;4.00;99.90
68485;DHT22;55472;50.060;21.960;2024-01-25T06:22:39;4.00;99.90
68485;DHT22;55472;50.060;21.960;2024-01-25T06:25:05;4.00;99.90
68485;DHT22;55472;50.060;21.960;2024-01-25T06:27:31;4.00;99.90
68485;DHT22;55472;50.060;21.960;2024-01-25T06:29:58;4.00;99.90
68485;DHT22;55472;50.060;21.960;2024-01-25T06:32:23;4.00;99.90
68485;DHT22;55472;50.060;21.960;2024-01-25T06:34:50;4.10;99.90
68485;DHT22;55472;50.060;21.960;2024-01-25T06:37:16;4.10;99.90
68485;DHT22;55472;50.060;21.960;2024-01-25T06:39:44;4.10;99.90
68485;DHT22;55472;50.060;21.960;2024-01-25T06:42:10;4.10;99.90
68485;DHT22;55472;50.060;21.960;2024-01-25T06:44:36;4.10;99.90
68485;DHT22;55472;50.060;21.960;2024-01-25T06:47:03;4.10;99.60
68485;DHT22;55472;50.060;21.960;2024-01-25T06:49:29;4.20;98.90
68485;DHT22;55472;50.060;21.960;2024-01-25T06:51:55;4.20;98.40
68485;DHT22;55472;50.060;21.960;2024-01-25T06:54:22;4.20;98.30
68485;DHT22;55472;50.060;21.960;2024-01-25T06:56:48;4.20;97.70
68485;DHT22;55472;50.060;21.960;2024-01-25T06:59:15;4.20;97.40
68485;DHT22;55472;50.060;21.960;2024-01-25T07:01:41;4.20;97.10
68485;DHT22;55472;50.060;21.960;2024-01-25T07:04:07;4.30;96.40
68485;DHT22;55472;50.060;21.960;2024-01-25T07:06:33;4.30;96.10
68485;DHT22;55472;50.060;21.960;2024-01-25T07:08:59;4.30;95.50
68485;DHT22;55472;50.060;21.960;2024-01-25T07:11:25;4.30;95.50
68485;DHT22;55472;50.060;21.960;2024-01-25T07:13:52;4.30;95.00
68485;DHT22;55472;50.060;21.960;2024-01-25T07:16:18;4.30;94.30
68485;DHT22;55472;50.060;21.960;2024-01-25T07:18:45;4.40;94.10
68485;DHT22;55472;50.060;21.960;2024-01-25T07:21:11;4.40;93.80
68485;DHT22;55472;50.060;21.960;2024-01-25T07:23:37;4.40;93.60
68485;DHT22;55472;50.060;21.960;2024-01-25T07:26:03;4.40;93.00
68485;DHT22;55472;50.060;21.960;2024-01-25T07:28:31;4.50;93.00
68485;DHT22;55472;50.060;21.960;2024-01-25T07:30:57;4.50;92.80
68485;DHT22;55472;50.060;21.960;2024-01-25T07:33:23;4.50;92.90
68485;DHT22;55472;50.060;21.960;2024-01-25T07:35:50;4.50;92.90
68485;DHT22;55472;50.060;21.960;2024-01-25T07:38:17;4.60;92.60
68485;DHT22;55472;50.060;21.960;2024-01-25T07:40:43;4.60;92.60
68485;DHT22;55472;50.060;21.960;2024-01-25T07:43:09;4.70;92.70
68485;DHT22;55472;50.060;21.960;2024-01-25T07:45:35;4.70;92.80
68485;DHT22;55472;50.060;21.960;2024-01-25T07:48:02;4.80;92.70
68485;DHT22;55472;50.060;21.960;2024-01-25T07:50:28;4.80;93.00
68485;DHT22;55472;50.060;21.960;2024-01-25T07:52:55;4.90;92.40
68485;DHT22;55472;50.060;21.960;2024-01-25T07:55:21;4.90;92.30
68485;DHT22;55472;50.060;21.960;2024-01-25T07:57:47;4.90;92.40
68485;DHT22;55472;50.060;21.960;2024-01-25T08:00:13;4.90;91.80
68485;DHT22;55472;50.060;21.960;2024-01-25T08:02:39;4.90;92.00
68485;DHT22;55472;50.060;21.960;2024-01-25T08:05:07;4.90;92.40
68485;DHT22;55472;50.060;21.960;2024-01-25T08:07:33;4.90;92.80
68485;DHT22;55472;50.060;21.960;2024-01-25T08:09:59;5.00;93.10
68485;DHT22;55472;50.060;21.960;2024-01-25T08:12:26;5.00;93.10
68485;DHT22;55472;50.060;21.960;2024-01-25T08:14:52;5.00;93.30
68485;DHT22;55472;50.060;21.960;2024-01-25T08:17:18;5.10;93.50
68485;DHT22;55472;50.060;21.960;2024-01-25T08:19:45;5.10;93.70
68485;DHT22;55472;50.060;21.960;2024-01-25T08:22:12;5.10;94.00
68485;DHT22;55472;50.060;21.960;2024-01-25T08:24:41;5.10;94.90
68485;DHT22;55472;50.060;21.960;2024-01-25T08:27:07;5.10;95.20
68485;DHT22;55472;50.060;21.960;2024-01-25T08:29:33;5.10;95.20
68485;DHT22;55472;50.060;21.960;2024-01-25T08:32:00;5.00;95.70
68485;DHT22;55472;50.060;21.960;2024-01-25T08:34:25;5.00;95.90
68485;DHT22;55472;50.060;21.960;2024-01-25T08:36:52;5.10;96.00
68485;DHT22;55472;50.060;21.960;2024-01-25T08:39:18;5.10;95.40
68485;DHT22;55472;50.060;21.960;2024-01-25T08:41:44;5.10;95.50
68485;DHT22;55472;50.060;21.960;2024-01-25T08:44:11;5.10;95.40
68485;DHT22;55472;50.060;21.960;2024-01-25T08:46:37;5.10;95.40
68485;DHT22;55472;50.060;21.960;2024-01-25T08:49:03;5.10;95.70
68485;DHT22;55472;50.060;21.960;2024-01-25T08:51:34;5.10;95.30
68485;DHT22;55472;50.060;21.960;2024-01-25T08:54:00;5.20;94.70
68485;DHT22;55472;50.060;21.960;2024-01-25T08:56:27;5.20;94.60
68485;DHT22;55472;50.060;21.960;2024-01-25T08:58:53;5.30;94.70
68485;DHT22;55472;50.060;21.960;2024-01-25T09:01:19;5.30;94.80
68485;DHT22;55472;50.060;21.960;2024-01-25T09:03:45;5.30;94.90
68485;DHT22;55472;50.060;21.960;2024-01-25T09:06:11;5.30;95.00
68485;DHT22;55472;50.060;21.960;2024-01-25T09:08:38;5.30;95.00
68485;DHT22;55472;50.060;21.960;2024-01-25T09:11:04;5.30;95.50
68485;DHT22;55472;50.060;21.960;2024-01-25T09:13:30;5.30;96.30
68485;DHT22;55472;50.060;21.960;2024-01-25T09:15:58;5.30;97.20
68485;DHT22;55472;50.060;21.960;2024-01-25T09:18:24;5.20;97.50
68485;DHT22;55472;50.060;21.960;2024-01-25T09:20:50;5.20;98.30
68485;DHT22;55472;50.060;21.960;2024-01-25T09:23:16;5.20;99.30
68485;DHT22;55472;50.060;21.960;2024-01-25T09:25:44;5.10;99.40
68485;DHT22;55472;50.060;21.960;2024-01-25T09:28:11;5.10;99.90
68485;DHT22;55472;50.060;21.960;2024-01-25T09:30:41;5.00;99.90
68485;DHT22;55472;50.060;21.960;2024-01-25T09:33:07;5.00;99.90
68485;DHT22;55472;50.060;21.960;2024-01-25T09:35:33;4.90;99.90
68485;DHT22;55472;50.060;21.960;2024-01-25T09:38:00;4.90;99.90
68485;DHT22;55472;50.060;21.960;2024-01-25T09:40:26;4.90;99.90
68485;DHT22;55472;50.060;21.960;2024-01-25T09:42:52;4.80;99.90
68485;DHT22;55472;50.060;21.960;2024-01-25T09:45:20;4.70;99.90
68485;DHT22;55472;50.060;21.960;2024-01-25T09:47:46;4.70;99.90
68485;DHT22;55472;50.060;21.960;2024-01-25T09:50:13;4.60;99.90
68485;DHT22;55472;50.060;21.960;2024-01-25T09:52:40;4.60;99.90
68485;DHT22;55472;50.060;21.960;2024-01-25T09:55:11;4.50;99.90
68485;DHT22;55472;50.060;21.960;2024-01-25T09:57:45;4.50;99.90
68485;DHT22;55472;50.060;21.960;2024-01-25T10:00:13;4.50;99.90
68485;DHT22;55472;50.060;21.960;2024-01-25T10:02:39;4.40;99.90
68485;DHT22;55472;50.060;21.960;2024-01-25T10:05:06;4.40;99.90
68485;DHT22;55472;50.060;21.960;2024-01-25T10:07:43;4.40;99.90
68485;DHT22;55472;50.060;21.960;2024-01-25T10:10:12;4.30;99.90
68485;DHT22;55472;50.060;21.960;2024-01-25T10:12:41;4.30;99.90
68485;DHT22;55472;50.060;21.960;2024-01-25T10:15:09;4.30;99.90
68485;DHT22;55472;50.060;21.960;2024-01-25T10:17:35;4.20;99.90
68485;DHT22;55472;50.060;21.960;2024-01-25T10:20:05;4.20;99.90
68485;DHT22;55472;50.060;21.960;2024-01-25T10:22:33;4.20;99.90
68485;DHT22;55472;50.060;21.960;2024-01-25T10:24:59;4.20;99.90
68485;DHT22;55472;50.060;21.960;2024-01-25T10:27:25;4.20;99.90
68485;DHT22;55472;50.060;21.960;2024-01-25T10:29:51;4.10;99.90
68485;DHT22;55472;50.060;21.960;2024-01-25T10:32:18;4.20;99.90
68485;DHT22;55472;50.060;21.960;2024-01-25T10:34:45;4.10;99.90
68485;DHT22;55472;50.060;21.960;2024-01-25T10:37:13;4.10;99.90
68485;DHT22;55472;50.060;21.960;2024-01-25T10:39:41;4.10;99.90
68485;DHT22;55472;50.060;21.960;2024-01-25T10:42:08;4.10;99.90
68485;DHT22;55472;50.060;21.960;2024-01-25T10:44:34;4.10;99.90
68485;DHT22;55472;50.060;21.960;2024-01-25T10:47:01;4.10;99.90
68485;DHT22;55472;50.060;21.960;2024-01-25T10:49:28;4.10;99.90
68485;DHT22;55472;50.060;21.960;2024-01-25T10:51:54;4.10;99.90
68485;DHT22;55472;50.060;21.960;2024-01-25T10:54:21;4.10;99.90
68485;DHT22;55472;50.060;21.960;2024-01-25T10:56:48;4.10;99.90
68485;DHT22;55472;50.060;21.960;2024-01-25T10:59:16;4.10;99.90
68485;DHT22;55472;50.060;21.960;2024-01-25T11:01:45;4.10;99.90
68485;DHT22;55472;50.060;21.960;2024-01-25T11:04:18;4.10;99.90
68485;DHT22;55472;50.060;21.960;2024-01-25T11:06:45;4.10;99.90
68485;DHT22;55472;50.060;21.960;2024-01-25T11:09:17;4.10;99.90
68485;DHT22;55472;50.060;21.960;2024-01-25T11:11:46;4.10;99.90
68485;DHT22;55472;50.060;21.960;2024-01-25T11:14:15;4.10;99.90
68485;DHT22;55472;50.060;21.960;2024-01-25T11:16:43;4.10;99.90
68485;DHT22;55472;50.060;21.960;2024-01-25T11:19:17;4.10;99.90
68485;DHT22;55472;50.060;21.960;2024-01-25T11:21:49;4.10;99.90
68485;DHT22;55472;50.060;21.960;2024-01-25T11:24:19;4.10;99.90
68485;DHT22;55472;50.060;21.960;2024-01-25T11:26:46;4.10;99.90
68485;DHT22;55472;50.060;21.960;2024-01-25T11:29:18;4.20;99.90
68485;DHT22;55472;50.060;21.960;2024-01-25T11:31:49;4.20;99.90
68485;DHT22;55472;50.060;21.960;2024-01-25T11:34:16;4.20;99.90
68485;DHT22;55472;50.060;21.960;2024-01-25T11:36:47;4.20;99.90
68485;DHT22;55472;50.060;21.960;2024-01-25T11:39:15;4.20;99.90
68485;DHT22;55472;50.060;21.960;2024-01-25T11:41:43;4.30;99.90
68485;DHT22;55472;50.060;21.960;2024-01-25T11:44:13;4.30;99.90
68485;DHT22;55472;50.060;21.960;2024-01-25T11:46:39;4.40;99.90
68485;DHT22;55472;50.060;21.960;2024-01-25T11:49:06;4.40;99.90
68485;DHT22;55472;50.060;21.960;2024-01-25T11:51:34;4.40;99.90
68485;DHT22;55472;50.060;21.960;2024-01-25T11:54:01;4.40;99.90
68485;DHT22;55472;50.060;21.960;2024-01-25T11:56:30;4.40;99.90
68485;DHT22;55472;50.060;21.960;2024-01-25T11:58:58;4.40;99.90
68485;DHT22;55472;50.060;21.960;2024-01-25T12:01:25;4.40;99.90
68485;DHT22;55472;50.060;21.960;2024-01-25T12:03:52;4.40;99.90
68485;DHT22;55472;50.060;21.960;2024-01-25T12:06:19;4.40;99.90
68485;DHT22;55472;50.060;21.960;2024-01-25T12:08:46;4.40;99.90
68485;DHT22;55472;50.060;21.960;2024-01-25T12:11:14;4.40;99.90
68485;DHT22;55472;50.060;21.960;2024-01-25T12:13:41;4.40;99.90
68485;DHT22;55472;50.060;21.960;2024-01-25T12:16:09;4.40;99.90
68485;DHT22;55472;50.060;21.960;2024-01-25T12:18:37;4.40;99.90
68485;DHT22;55472;50.060;21.960;2024-01-25T12:21:05;4.30;99.90
68485;DHT22;55472;50.060;21.960;2024-01-25T12:26:07;4.30;99.90
68485;DHT22;55472;50.060;21.960;2024-01-25T12:28:35;4.30;99.90
68485;DHT22;55472;50.060;21.960;2024-01-25T12:31:02;4.20;99.90
68485;DHT22;55472;50.060;21.960;2024-01-25T12:33:33;4.20;99.90
68485;DHT22;55472;50.060;21.960;2024-01-25T12:35:59;4.20;99.90
68485;DHT22;55472;50.060;21.960;2024-01-25T12:38:26;4.20;99.90
68485;DHT22;55472;50.060;21.960;2024-01-25T12:40:54;4.10;99.90
68485;DHT22;55472;50.060;21.960;2024-01-25T12:43:20;4.10;99.90
68485;DHT22;55472;50.060;21.960;2024-01-25T12:45:49;4.10;99.90
68485;DHT22;55472;50.060;21.960;2024-01-25T12:48:16;4.10;99.90
68485;DHT22;55472;50.060;21.960;2024-01-25T12:50:43;4.10;99.90
68485;DHT22;55472;50.060;21.960;2024-01-25T12:53:13;4.10;99.90
68485;DHT22;55472;50.060;21.960;2024-01-25T12:55:40;4.00;99.90
68485;DHT22;55472;50.060;21.960;2024-01-25T12:58:06;4.00;99.90
68485;DHT22;55472;50.060;21.960;2024-01-25T13:00:32;4.00;99.90
68485;DHT22;55472;50.060;21.960;2024-01-25T13:02:59;4.10;99.90
68485;DHT22;55472;50.060;21.960;2024-01-25T13:05:28;4.00;99.90
68485;DHT22;55472;50.060;21.960;2024-01-25T13:07:55;4.10;99.90
68485;DHT22;55472;50.060;21.960;2024-01-25T13:10:21;4.00;99.90
68485;DHT22;55472;50.060;21.960;2024-01-25T13:12:48;4.00;99.90
68485;DHT22;55472;50.060;21.960;2024-01-25T13:15:14;4.00;99.90
68485;DHT22;55472;50.060;21.960;2024-01-25T13:17:40;4.00;99.90
68485;DHT22;55472;50.060;21.960;2024-01-25T13:20:07;4.00;99.90
68485;DHT22;55472;50.060;21.960;2024-01-25T13:22:34;4.00;99.90
68485;DHT22;55472;50.060;21.960;2024-01-25T13:25:01;4.00;99.90
68485;DHT22;55472;50.060;21.960;2024-01-25T13:27:28;4.00;99.90
68485;DHT22;55472;50.060;21.960;2024-01-25T13:29:54;3.90;99.90
68485;DHT22;55472;50.060;21.960;2024-01-25T13:32:21;4.00;99.90
68485;DHT22;55472;50.060;21.960;2024-01-25T13:34:48;4.00;99.90
68485;DHT22;55472;50.060;21.960;2024-01-25T13:37:14;4.00;99.90
68485;DHT22;55472;50.060;21.960;2024-01-25T13:39:40;4.00;99.90
68485;DHT22;55472;50.060;21.960;2024-01-25T13:42:06;4.00;99.90
68485;DHT22;55472;50.060;21.960;2024-01-25T13:44:32;4.00;99.90
68485;DHT22;55472;50.060;21.960;2024-01-25T13:46:59;4.00;99.90
68485;DHT22;55472;50.060;21.960;2024-01-25T13:49:25;4.00;99.90
68485;DHT22;55472;50.060;21.960;2024-01-25T13:51:51;4.10;99.90
68485;DHT22;55472;50.060;21.960;2024-01-25T13:54:17;4.00;99.90
68485;DHT22;55472;50.060;21.960;2024-01-25T13:56:43;4.00;99.90
68485;DHT22;55472;50.060;21.960;2024-01-25T13:59:09;4.00;99.90
68485;DHT22;55472;50.060;21.960;2024-01-25T14:01:36;4.00;99.90
68485;DHT22;55472;50.060;21.960;2024-01-25T14:04:03;4.00;99.90
68485;DHT22;55472;50.060;21.960;2024-01-25T14:06:30;4.00;99.90
68485;DHT22;55472;50.060;21.960;2024-01-25T14:08:56;4.00;99.90
68485;DHT22;55472;50.060;21.960;2024-01-25T14:11:22;3.90;99.90
68485;DHT22;55472;50.060;21.960;2024-01-25T14:13:48;3.90;99.90
68485;DHT22;55472;50.060;21.960;2024-01-25T14:16:14;4.00;99.90
68485;DHT22;55472;50.060;21.960;2024-01-25T14:18:43;3.90;99.90
68485;DHT22;55472;50.060;21.960;2024-01-25T14:21:12;3.90;99.90
68485;DHT22;55472;50.060;21.960;2024-01-25T14:23:38;3.90;99.90
68485;DHT22;55472;50.060;21.960;2024-01-25T14:26:04;3.90;99.90
68485;DHT22;55472;50.060;21.960;2024-01-25T14:28:33;3.90;99.90
68485;DHT22;55472;50.060;21.960;2024-01-25T14:30:59;3.90;99.90
68485;DHT22;55472;50.060;21.960;2024-01-25T14:33:25;3.90;99.90
68485;DHT22;55472;50.060;21.960;2024-01-25T14:35:52;3.90;99.90
68485;DHT22;55472;50.060;21.960;2024-01-25T14:38:18;3.90;99.90
68485;DHT22;55472;50.060;21.960;2024-01-25T14:40:44;3.90;99.90
68485;DHT22;55472;50.060;21.960;2024-01-25T14:43:10;3.90;99.90
68485;DHT22;55472;50.060;21.960;2024-01-25T14:45:36;3.90;99.90
68485;DHT22;55472;50.060;21.960;2024-01-25T14:48:04;3.90;99.90
68485;DHT22;55472;50.060;21.960;2024-01-25T14:50:31;3.90;99.90
68485;DHT22;55472;50.060;21.960;2024-01-25T14:52:58;3.90;99.90
68485;DHT22;55472;50.060;21.960;2024-01-25T14:55:24;3.90;99.90
68485;DHT22;55472;50.060;21.960;2024-01-25T14:57:50;3.90;99.90
68485;DHT22;55472;50.060;21.960;2024-01-25T15:00:17;3.90;99.90
68485;DHT22;55472;50.060;21.960;2024-01-25T15:02:48;3.90;99.90
68485;DHT22;55472;50.060;21.960;2024-01-25T15:05:14;3.90;99.90
68485;DHT22;55472;50.060;21.960;2024-01-25T15:07:40;3.90;99.90
68485;DHT22;55472;50.060;21.960;2024-01-25T15:10:07;3.90;99.90
68485;DHT22;55472;50.060;21.960;2024-01-25T15:12:34;3.80;99.90
68485;DHT22;55472;50.060;21.960;2024-01-25T15:15:00;3.90;99.90
68485;DHT22;55472;50.060;21.960;2024-01-25T15:17:26;3.80;99.90
68485;DHT22;55472;50.060;21.960;2024-01-25T15:19:52;3.80;99.90
68485;DHT22;55472;50.060;21.960;2024-01-25T15:22:18;3.80;99.90
68485;DHT22;55472;50.060;21.960;2024-01-25T15:24:46;3.80;99.90
68485;DHT22;55472;50.060;21.960;2024-01-25T15:27:12;3.80;99.90
68485;DHT22;55472;50.060;21.960;2024-01-25T15:29:40;3.80;99.90